Schillplate — ZDJJ8 — position and weather

sailwx.info

Track history (hours):
 
Tides and Currents Weather Stations Pressure Air Temp Water Temp Dewpoint Dewpoint Depression Visibility Wind Speed Wind Dir Waves Ship Positions

Schillplate

Last reported at 2017-Oct-17 07:53 UTC. Time now 2017-Oct-19 06:59 UTC.
Position N 41°04' E 001°38'.

; draft 5.4 m.

Type: Cargo ship. MMSI: 236111603.

Date/timePositionNaut miles runAvg speedWind from/ knotsBaromVisibWave heightAir tempDewpointWater temp
2017-Oct-17 07:53N 41°04' E 001°38'410.6
2017-Oct-17 07:30N 41°04' E 001°43'510.2
2017-Oct-17 07:00N 41°05' E 001°50'510.4
2017-Oct-17 06:30N 41°07' E 001°56'138 9.8
2017-Oct-16 16:24N 42°57' E 003°48'410.3
2017-Oct-16 16:00N 43°01' E 003°49'1010.5
2017-Oct-16 15:02N 43°11' E 003°49'210.5
2017-Oct-16 14:53N 43°13' E 003°49'910.1
2017-Oct-16 14:00N 43°22' E 003°47'4 7.0
2017-Oct-16 13:30N 43°24' E 003°43'0 0.1
2017-Oct-16 12:58N 43°24' E 003°43'0 0.0
2017-Oct-16 12:19N 43°24' E 003°43'0 0.0
2017-Oct-16 11:52N 43°24' E 003°43'0 0.0
2017-Oct-16 11:28N 43°24' E 003°43'0 0.0
2017-Oct-16 10:58N 43°24' E 003°43'0 0.0
2017-Oct-16 10:28N 43°24' E 003°43'0 0.0
2017-Oct-16 09:58N 43°24' E 003°43'0 0.0
2017-Oct-16 07:16N 43°24' E 003°43'0 0.0
2017-Oct-16 00:04N 43°24' E 003°43'0 0.0
2017-Oct-15 23:40N 43°24' E 003°43'0 0.0
2017-Oct-15 15:43N 43°24' E 003°43'0 0.0
2017-Oct-15 15:28N 43°24' E 003°43'0 0.0
2017-Oct-15 14:55N 43°24' E 003°43'0 0.0
2017-Oct-15 13:52N 43°24' E 003°43'0 0.0
2017-Oct-15 13:07N 43°24' E 003°43'0 0.0
2017-Oct-15 12:49N 43°24' E 003°43'0 0.0
2017-Oct-15 10:52N 43°24' E 003°43'0 0.0
2017-Oct-15 09:37N 43°24' E 003°43'0 0.0
2017-Oct-15 09:22N 43°24' E 003°43'0 0.0
2017-Oct-15 08:52N 43°24' E 003°43'0 0.0
2017-Oct-15 08:28N 43°24' E 003°43'0 0.0
2017-Oct-15 07:40N 43°24' E 003°43'0 0.0
2017-Oct-15 07:28N 43°24' E 003°43'0 0.0
2017-Oct-14 21:40N 43°24' E 003°43'0 0.0
2017-Oct-14 21:28N 43°24' E 003°43'0 0.0
2017-Oct-14 20:55N 43°24' E 003°43'0 0.0
2017-Oct-14 20:28N 43°24' E 003°43'0 0.0
2017-Oct-14 19:58N 43°24' E 003°43'0 0.0
2017-Oct-14 19:28N 43°24' E 003°43'0 0.0
2017-Oct-14 10:31N 43°24' E 003°43'0 0.0
2017-Oct-14 08:58N 43°24' E 003°43'0 0.0
2017-Oct-14 01:40N 43°24' E 003°43'0 0.0
2017-Oct-14 01:04N 43°24' E 003°43'0 0.0
2017-Oct-13 23:46N 43°24' E 003°43'0 0.0
2017-Oct-13 22:25N 43°24' E 003°43'0 0.0
2017-Oct-13 21:49N 43°24' E 003°43'0 0.0
2017-Oct-13 19:58N 43°24' E 003°43'0 0.0
2017-Oct-13 19:10N 43°24' E 003°43'0 0.0
2017-Oct-13 18:43N 43°24' E 003°43'0 0.0
2017-Oct-13 18:22N 43°24' E 003°43'0 0.0
2017-Oct-13 16:49N 43°24' E 003°43'0 0.0
2017-Oct-13 15:43N 43°24' E 003°43'0 1.2
2017-Oct-13 15:27N 43°24' E 003°43'4 8.9
2017-Oct-13 15:00N 43°22' E 003°48'510.7
2017-Oct-13 14:30N 43°17' E 003°50'611.1
2017-Oct-13 14:01N 43°12' E 003°49'3 6.9
2017-Oct-13 13:31N 43°08' E 003°48'0 0.3
2017-Oct-13 13:01N 43°08' E 003°48'0 0.3
2017-Oct-13 12:31N 43°08' E 003°48'0 0.3
2017-Oct-13 12:01N 43°08' E 003°48'0 0.3
2017-Oct-13 11:30N 43°08' E 003°49'0 0.4
2017-Oct-13 11:00N 43°08' E 003°49'0 0.5
2017-Oct-13 10:30N 43°08' E 003°49'0 0.4
2017-Oct-13 10:01N 43°08' E 003°49'0 0.4
2017-Oct-13 09:30N 43°08' E 003°50'0 0.3
2017-Oct-13 08:59N 43°08' E 003°50'0 0.2
2017-Oct-13 08:30N 43°08' E 003°50'0 0.0
2017-Oct-13 08:00N 43°08' E 003°50'6 5.8
2017-Oct-13 07:02N 43°02' E 003°49'111.2
2017-Oct-13 06:58N 43°01' E 003°49'811.0
2017-Oct-13 06:16N 42°54' E 003°48'2510.7
2017-Oct-13 03:57N 42°29' E 003°42'1410.4
2017-Oct-13 02:37N 42°16' E 003°36'210.5
2017-Oct-13 02:28N 42°14' E 003°35'510.2
2017-Oct-13 02:00N 42°10' E 003°33'1710.4
2017-Oct-13 00:25N 41°55' E 003°24'410.7
2017-Oct-13 00:01N 41°51' E 003°21'711.0
2017-Oct-12 23:25N 41°45' E 003°18'1411.5
2017-Oct-12 22:12N 41°37' E 003°03'5311.2
2017-Oct-12 17:27N 41°08' E 002°03'511.1
2017-Oct-12 17:00N 41°07' E 001°57'611.1
2017-Oct-12 16:30N 41°05' E 001°50'611.1
2017-Oct-12 16:01N 41°04' E 001°42'611.2
2017-Oct-12 15:31N 41°04' E 001°35'  
2017-Oct-07 23:57N 36°58' E 013°46'4 8.8
2017-Oct-07 23:30N 36°56' E 013°51'4 9.0
2017-Oct-07 23:00N 36°54' E 013°56'5 9.1
2017-Oct-07 22:30N 36°52' E 014°01'5 9.1
2017-Oct-07 22:00N 36°50' E 014°06'5 9.1
2017-Oct-07 21:30N 36°48' E 014°11'5 9.2
2017-Oct-07 21:00N 36°45' E 014°16'5 9.5
2017-Oct-07 20:30N 36°43' E 014°21'5 9.5
2017-Oct-07 19:58N 36°41' E 014°27'4 9.4
2017-Oct-07 19:30N 36°40' E 014°32'  
Track history (hours):
 
Tides and Currents Weather Stations Pressure Air Temp Water Temp Dewpoint Dewpoint Depression Visibility Wind Speed Wind Dir Waves Ship Positions

Schillplate

Last reported at 2017-Oct-17 07:53 UTC. Time now 2017-Oct-19 06:59 UTC.
Position N 41°04' E 001°38'.

; draft 5.4 m.

Type: Cargo ship. MMSI: 236111603.

Date/timePositionNaut miles runAvg speedWind from/ knotsBaromVisibWave heightAir tempDewpointWater temp
2017-Oct-17 07:53N 41°04' E 001°38'410.6
2017-Oct-17 07:30N 41°04' E 001°43'510.2
2017-Oct-17 07:00N 41°05' E 001°50'510.4
2017-Oct-17 06:30N 41°07' E 001°56'138 9.8
2017-Oct-16 16:24N 42°57' E 003°48'410.3
2017-Oct-16 16:00N 43°01' E 003°49'1010.5
2017-Oct-16 15:02N 43°11' E 003°49'210.5
2017-Oct-16 14:53N 43°13' E 003°49'910.1
2017-Oct-16 14:00N 43°22' E 003°47'4 7.0
2017-Oct-16 13:30N 43°24' E 003°43'0 0.1
2017-Oct-16 12:58N 43°24' E 003°43'0 0.0
2017-Oct-16 12:19N 43°24' E 003°43'0 0.0
2017-Oct-16 11:52N 43°24' E 003°43'0 0.0
2017-Oct-16 11:28N 43°24' E 003°43'0 0.0
2017-Oct-16 10:58N 43°24' E 003°43'0 0.0
2017-Oct-16 10:28N 43°24' E 003°43'0 0.0
2017-Oct-16 09:58N 43°24' E 003°43'0 0.0
2017-Oct-16 07:16N 43°24' E 003°43'0 0.0
2017-Oct-16 00:04N 43°24' E 003°43'0 0.0
2017-Oct-15 23:40N 43°24' E 003°43'0 0.0
2017-Oct-15 15:43N 43°24' E 003°43'0 0.0
2017-Oct-15 15:28N 43°24' E 003°43'0 0.0
2017-Oct-15 14:55N 43°24' E 003°43'0 0.0
2017-Oct-15 13:52N 43°24' E 003°43'0 0.0
2017-Oct-15 13:07N 43°24' E 003°43'0 0.0
2017-Oct-15 12:49N 43°24' E 003°43'0 0.0
2017-Oct-15 10:52N 43°24' E 003°43'0 0.0
2017-Oct-15 09:37N 43°24' E 003°43'0 0.0
2017-Oct-15 09:22N 43°24' E 003°43'0 0.0
2017-Oct-15 08:52N 43°24' E 003°43'0 0.0
2017-Oct-15 08:28N 43°24' E 003°43'0 0.0
2017-Oct-15 07:40N 43°24' E 003°43'0 0.0
2017-Oct-15 07:28N 43°24' E 003°43'0 0.0
2017-Oct-14 21:40N 43°24' E 003°43'0 0.0
2017-Oct-14 21:28N 43°24' E 003°43'0 0.0
2017-Oct-14 20:55N 43°24' E 003°43'0 0.0
2017-Oct-14 20:28N 43°24' E 003°43'0 0.0
2017-Oct-14 19:58N 43°24' E 003°43'0 0.0
2017-Oct-14 19:28N 43°24' E 003°43'0 0.0
2017-Oct-14 10:31N 43°24' E 003°43'0 0.0
2017-Oct-14 08:58N 43°24' E 003°43'0 0.0
2017-Oct-14 01:40N 43°24' E 003°43'0 0.0
2017-Oct-14 01:04N 43°24' E 003°43'0 0.0
2017-Oct-13 23:46N 43°24' E 003°43'0 0.0
2017-Oct-13 22:25N 43°24' E 003°43'0 0.0
2017-Oct-13 21:49N 43°24' E 003°43'0 0.0
2017-Oct-13 19:58N 43°24' E 003°43'0 0.0
2017-Oct-13 19:10N 43°24' E 003°43'0 0.0
2017-Oct-13 18:43N 43°24' E 003°43'0 0.0
2017-Oct-13 18:22N 43°24' E 003°43'0 0.0
2017-Oct-13 16:49N 43°24' E 003°43'0 0.0
2017-Oct-13 15:43N 43°24' E 003°43'0 1.2
2017-Oct-13 15:27N 43°24' E 003°43'4 8.9
2017-Oct-13 15:00N 43°22' E 003°48'510.7
2017-Oct-13 14:30N 43°17' E 003°50'611.1
2017-Oct-13 14:01N 43°12' E 003°49'3 6.9
2017-Oct-13 13:31N 43°08' E 003°48'0 0.3
2017-Oct-13 13:01N 43°08' E 003°48'0 0.3
2017-Oct-13 12:31N 43°08' E 003°48'0 0.3
2017-Oct-13 12:01N 43°08' E 003°48'0 0.3
2017-Oct-13 11:30N 43°08' E 003°49'0 0.4
2017-Oct-13 11:00N 43°08' E 003°49'0 0.5
2017-Oct-13 10:30N 43°08' E 003°49'0 0.4
2017-Oct-13 10:01N 43°08' E 003°49'0 0.4
2017-Oct-13 09:30N 43°08' E 003°50'0 0.3
2017-Oct-13 08:59N 43°08' E 003°50'0 0.2
2017-Oct-13 08:30N 43°08' E 003°50'0 0.0
2017-Oct-13 08:00N 43°08' E 003°50'6 5.8
2017-Oct-13 07:02N 43°02' E 003°49'111.2
2017-Oct-13 06:58N 43°01' E 003°49'811.0
2017-Oct-13 06:16N 42°54' E 003°48'2510.7
2017-Oct-13 03:57N 42°29' E 003°42'1410.4
2017-Oct-13 02:37N 42°16' E 003°36'210.5
2017-Oct-13 02:28N 42°14' E 003°35'510.2
2017-Oct-13 02:00N 42°10' E 003°33'1710.4
2017-Oct-13 00:25N 41°55' E 003°24'410.7
2017-Oct-13 00:01N 41°51' E 003°21'711.0
2017-Oct-12 23:25N 41°45' E 003°18'1411.5
2017-Oct-12 22:12N 41°37' E 003°03'5311.2
2017-Oct-12 17:27N 41°08' E 002°03'511.1
2017-Oct-12 17:00N 41°07' E 001°57'611.1
2017-Oct-12 16:30N 41°05' E 001°50'611.1
2017-Oct-12 16:01N 41°04' E 001°42'611.2
2017-Oct-12 15:31N 41°04' E 001°35'  
2017-Oct-07 23:57N 36°58' E 013°46'4 8.8
2017-Oct-07 23:30N 36°56' E 013°51'4 9.0
2017-Oct-07 23:00N 36°54' E 013°56'5 9.1
2017-Oct-07 22:30N 36°52' E 014°01'5 9.1
2017-Oct-07 22:00N 36°50' E 014°06'5 9.1
2017-Oct-07 21:30N 36°48' E 014°11'5 9.2
2017-Oct-07 21:00N 36°45' E 014°16'5 9.5
2017-Oct-07 20:30N 36°43' E 014°21'5 9.5
2017-Oct-07 19:58N 36°41' E 014°27'4 9.4
2017-Oct-07 19:30N 36°40' E 014°32'  

Dump ship's entire track history